Time,TemperatureF,DewpointF,PressureIn,WindDirection,WindDirectionDegrees,WindSpeedMPH,WindSpeedGustMPH,Humidity,HourlyPrecipIn,Conditions,Clouds,dailyrainin,SolarRadiationWatts/m^2,SoftwareType,DateUTC
2013-07-18 00:14:00,78.5,72.0,30.08,South,180,0.0,-999.0,80,-99.99,,,0.00,0,weatherlink.com 1.10,2013-07-18 04:14:00,
2013-07-18 00:29:00,78.4,72.0,30.08,South,180,0.0,-999.0,81,-99.99,,,0.00,0,weatherlink.com 1.10,2013-07-18 04:29:00,
2013-07-18 00:44:00,78.2,72.0,30.08,South,180,0.0,-999.0,81,-99.99,,,0.00,0,weatherlink.com 1.10,2013-07-18 04:44:00,
2013-07-18 00:59:00,78.0,72.0,30.07,South,180,0.0,-999.0,82,-99.99,,,0.00,0,weatherlink.com 1.10,2013-07-18 04:59:00,
2013-07-18 01:14:00,77.7,72.0,30.07,South,180,0.0,-999.0,82,-99.99,,,0.00,0,weatherlink.com 1.10,2013-07-18 05:14:00,
2013-07-18 01:29:00,77.3,72.0,30.07,WSW,251,0.0,-999.0,83,-99.99,,,0.00,0,weatherlink.com 1.10,2013-07-18 05:29:00,
2013-07-18 01:45:00,77.0,72.0,30.07,WSW,251,0.0,-999.0,83,-99.99,,,0.00,0,weatherlink.com 1.10,2013-07-18 05:45:00,
2013-07-18 02:00:00,76.8,72.0,30.06,WSW,251,0.0,-999.0,84,-99.99,,,0.00,0,weatherlink.com 1.10,2013-07-18 06:00:00,
2013-07-18 02:15:00,76.6,72.0,30.06,WSW,251,0.0,-999.0,84,-99.99,,,0.00,0,weatherlink.com 1.10,2013-07-18 06:15:00,
2013-07-18 02:30:00,76.3,72.0,30.06,WSW,251,0.0,-999.0,85,-99.99,,,0.00,0,weatherlink.com 1.10,2013-07-18 06:30:00,
2013-07-18 02:45:00,75.9,72.0,30.05,WSW,251,0.0,-999.0,86,-99.99,,,0.00,0,weatherlink.com 1.10,2013-07-18 06:45:00,
2013-07-18 03:00:00,75.6,72.0,30.05,WSW,251,0.0,-999.0,87,-99.99,,,0.00,0,weatherlink.com 1.10,2013-07-18 07:00:00,
2013-07-18 03:15:00,75.5,71.0,30.04,WSW,237,0.0,-999.0,87,-99.99,,,0.00,0,weatherlink.com 1.10,2013-07-18 07:15:00,
2013-07-18 03:30:00,75.5,71.0,30.04,WSW,237,0.0,-999.0,87,-99.99,,,0.00,0,weatherlink.com 1.10,2013-07-18 07:30:00,
2013-07-18 03:45:00,75.4,71.0,30.04,SW,234,0.0,-999.0,87,-99.99,,,0.00,0,weatherlink.com 1.10,2013-07-18 07:45:00,
2013-07-18 04:00:00,75.3,72.0,30.04,SW,234,0.0,-999.0,88,-99.99,,,0.00,0,weatherlink.com 1.10,2013-07-18 08:00:00,
2013-07-18 04:15:00,75.3,72.0,30.03,SW,234,0.0,-999.0,88,-99.99,,,0.00,0,weatherlink.com 1.10,2013-07-18 08:15:00,
2013-07-18 04:30:00,75.5,72.0,30.04,SW,235,0.0,-999.0,88,-99.99,,,0.00,0,weatherlink.com 1.10,2013-07-18 08:30:00,
2013-07-18 04:45:00,75.4,72.0,30.04,SW,235,0.0,-999.0,88,-99.99,,,0.00,0,weatherlink.com 1.10,2013-07-18 08:45:00,
2013-07-18 05:00:00,75.3,72.0,30.03,SW,235,0.0,-999.0,89,-99.99,,,0.00,0,weatherlink.com 1.10,2013-07-18 09:00:00,
2013-07-18 05:15:00,75.2,72.0,30.03,SW,235,0.0,-999.0,89,-99.99,,,0.00,0,weatherlink.com 1.10,2013-07-18 09:15:00,
2013-07-18 05:30:00,75.1,72.0,30.03,SW,235,0.0,-999.0,90,-99.99,,,0.00,0,weatherlink.com 1.10,2013-07-18 09:30:00,
2013-07-18 05:45:00,75.0,72.0,30.04,SW,235,0.0,-999.0,90,-99.99,,,0.00,0,weatherlink.com 1.10,2013-07-18 09:45:00,
2013-07-18 06:00:00,74.9,72.0,30.04,SW,235,0.0,-999.0,91,-99.99,,,0.00,9,weatherlink.com 1.10,2013-07-18 10:00:00,
2013-07-18 06:15:00,74.9,72.0,30.04,SW,235,0.0,-999.0,91,-99.99,,,0.00,19,weatherlink.com 1.10,2013-07-18 10:15:00,
2013-07-18 06:30:00,75.3,73.0,30.04,SW,235,0.0,-999.0,91,-99.99,,,0.00,32,weatherlink.com 1.10,2013-07-18 10:30:00,
2013-07-18 06:45:00,75.8,73.0,30.04,SW,235,0.0,-999.0,91,-99.99,,,0.00,60,weatherlink.com 1.10,2013-07-18 10:45:00,
2013-07-18 07:00:00,76.7,74.0,30.04,SW,235,0.0,-999.0,90,-99.99,,,0.00,113,weatherlink.com 1.10,2013-07-18 11:00:00,
2013-07-18 07:15:00,78.0,74.0,30.04,SW,235,0.0,-999.0,88,-99.99,,,0.00,149,weatherlink.com 1.10,2013-07-18 11:15:00,
2013-07-18 07:30:00,79.5,75.0,30.05,SW,235,0.0,-999.0,86,-99.99,,,0.00,202,weatherlink.com 1.10,2013-07-18 11:30:00,
2013-07-18 07:45:00,81.0,75.0,30.05,North,350,0.0,-999.0,82,-99.99,,,0.00,234,weatherlink.com 1.10,2013-07-18 11:45:00,
2013-07-18 08:00:00,82.3,76.0,30.05,NW,317,0.0,-999.0,80,-99.99,,,0.00,283,weatherlink.com 1.10,2013-07-18 12:00:00,
2013-07-18 08:15:00,83.0,76.0,30.05,NW,317,0.0,-999.0,79,-99.99,,,0.00,332,weatherlink.com 1.10,2013-07-18 12:15:00,
2013-07-18 08:30:00,83.7,76.0,30.05,NW,317,0.0,-999.0,78,-99.99,,,0.00,385,weatherlink.com 1.10,2013-07-18 12:30:00,
2013-07-18 08:45:00,84.6,77.0,30.05,WNW,300,1.0,-999.0,77,-99.99,,,0.00,434,weatherlink.com 1.10,2013-07-18 12:45:00,
2013-07-18 09:00:00,85.4,77.0,30.05,WNW,300,0.0,-999.0,75,-99.99,,,0.00,476,weatherlink.com 1.10,2013-07-18 13:00:00,
2013-07-18 09:15:00,86.3,77.0,30.05,NNW,346,0.0,-999.0,74,-99.99,,,0.00,524,weatherlink.com 1.10,2013-07-18 13:15:00,
2013-07-18 09:30:00,87.2,78.0,30.05,NNW,344,1.0,-999.0,73,-99.99,,,0.00,571,weatherlink.com 1.10,2013-07-18 13:30:00,
2013-07-18 09:45:00,88.2,78.0,30.05,NNW,344,0.0,-999.0,72,-99.99,,,0.00,612,weatherlink.com 1.10,2013-07-18 13:45:00,
2013-07-18 10:01:00,89.0,78.0,30.05,NNW,340,0.0,-999.0,70,-99.99,,,0.00,663,weatherlink.com 1.10,2013-07-18 14:01:00,
2013-07-18 10:16:00,89.2,78.0,30.05,NNW,340,0.0,-999.0,69,-99.99,,,0.00,703,weatherlink.com 1.10,2013-07-18 14:16:00,
2013-07-18 10:31:00,90.4,78.0,30.04,NNW,338,0.0,-999.0,67,-99.99,,,0.00,735,weatherlink.com 1.10,2013-07-18 14:31:00,
2013-07-18 10:46:00,91.6,79.0,30.04,WNW,282,0.0,-999.0,67,-99.99,,,0.00,768,weatherlink.com 1.10,2013-07-18 14:46:00,
2013-07-18 11:01:00,91.5,79.0,30.04,SSW,196,0.0,-999.0,67,-99.99,,,0.00,798,weatherlink.com 1.10,2013-07-18 15:01:00,
2013-07-18 11:16:00,93.2,79.0,30.04,SW,220,0.0,-999.0,63,-99.99,,,0.00,830,weatherlink.com 1.10,2013-07-18 15:16:00,
2013-07-18 11:31:00,94.4,78.0,30.04,SW,227,0.0,-999.0,60,-99.99,,,0.00,847,weatherlink.com 1.10,2013-07-18 15:31:00,
2013-07-18 11:46:00,93.4,76.0,30.04,West,268,0.0,-999.0,58,-99.99,,,0.00,874,weatherlink.com 1.10,2013-07-18 15:46:00,
2013-07-18 12:01:00,94.8,77.0,30.04,South,180,0.0,-999.0,56,-99.99,,,0.00,874,weatherlink.com 1.10,2013-07-18 16:01:00,
2013-07-18 12:16:00,94.4,78.0,30.04,ENE,78,2.0,-999.0,59,-99.99,,,0.00,904,weatherlink.com 1.10,2013-07-18 16:16:00,
2013-07-18 12:31:00,94.2,78.0,30.03,WSW,239,2.0,-999.0,59,-99.99,,,0.00,918,weatherlink.com 1.10,2013-07-18 16:31:00,
2013-07-18 12:46:00,94.8,77.0,30.03,North,355,0.0,-999.0,57,-99.99,,,0.00,939,weatherlink.com 1.10,2013-07-18 16:46:00,
2013-07-18 13:01:00,95.0,76.0,30.02,North,355,2.0,-999.0,55,-99.99,,,0.00,956,weatherlink.com 1.10,2013-07-18 17:01:00,
2013-07-18 13:16:00,95.6,77.0,30.02,West,271,2.0,-999.0,56,-99.99,,,0.00,944,weatherlink.com 1.10,2013-07-18 17:16:00,
2013-07-18 13:31:00,94.8,77.0,30.02,North,5,0.0,-999.0,56,-99.99,,,0.00,244,weatherlink.com 1.10,2013-07-18 17:31:00,
2013-07-18 13:46:00,95.2,78.0,30.02,NNE,28,1.0,-999.0,57,-99.99,,,0.00,993,weatherlink.com 1.10,2013-07-18 17:46:00,
2013-07-18 14:01:00,94.6,78.0,30.01,WSW,238,0.0,-999.0,59,-99.99,,,0.00,953,weatherlink.com 1.10,2013-07-18 18:01:00,
2013-07-18 14:16:00,95.2,78.0,30.01,North,350,0.0,-999.0,57,-99.99,,,0.00,188,weatherlink.com 1.10,2013-07-18 18:16:00,
2013-07-18 14:31:00,95.3,77.0,30.00,North,350,1.0,-999.0,55,-99.99,,,0.00,160,weatherlink.com 1.10,2013-07-18 18:31:00,
2013-07-18 14:46:00,94.9,77.0,30.00,West,263,1.0,-999.0,57,-99.99,,,0.00,911,weatherlink.com 1.10,2013-07-18 18:46:00,
2013-07-18 15:01:00,95.6,77.0,29.99,North,355,1.0,-999.0,56,-99.99,,,0.00,844,weatherlink.com 1.10,2013-07-18 19:01:00,
2013-07-18 15:16:00,97.2,77.0,29.98,SW,236,0.0,-999.0,52,-99.99,,,0.00,821,weatherlink.com 1.10,2013-07-18 19:16:00,
2013-07-18 15:31:00,96.8,77.0,29.98,SSE,166,0.0,-999.0,54,-99.99,,,0.00,810,weatherlink.com 1.10,2013-07-18 19:31:00,
2013-07-18 15:46:00,96.8,77.0,29.98,WSW,256,2.0,-999.0,54,-99.99,,,0.00,733,weatherlink.com 1.10,2013-07-18 19:46:00,
2013-07-18 16:02:00,96.9,78.0,29.98,SSW,193,1.0,-999.0,54,-99.99,,,0.00,671,weatherlink.com 1.10,2013-07-18 20:02:00,
2013-07-18 16:17:00,98.2,79.0,29.97,SW,223,0.0,-999.0,54,-99.99,,,0.00,649,weatherlink.com 1.10,2013-07-18 20:17:00,
2013-07-18 16:32:00,98.4,78.0,29.97,West,273,0.0,-999.0,53,-99.99,,,0.00,501,weatherlink.com 1.10,2013-07-18 20:32:00,
2013-07-18 16:47:00,97.4,77.0,29.97,NNW,333,0.0,-999.0,52,-99.99,,,0.00,568,weatherlink.com 1.10,2013-07-18 20:47:00,
2013-07-18 17:02:00,96.8,79.0,29.97,WNW,302,1.0,-999.0,56,-99.99,,,0.00,512,weatherlink.com 1.10,2013-07-18 21:02:00,
2013-07-18 17:17:00,96.9,76.0,29.96,NW,317,0.0,-999.0,52,-99.99,,,0.00,461,weatherlink.com 1.10,2013-07-18 21:17:00,
2013-07-18 17:32:00,96.2,76.0,29.96,NNW,347,0.0,-999.0,53,-99.99,,,0.00,415,weatherlink.com 1.10,2013-07-18 21:32:00,
2013-07-18 17:47:00,95.7,76.0,29.96,NNW,347,1.0,-999.0,54,-99.99,,,0.00,111,weatherlink.com 1.10,2013-07-18 21:47:00,
2013-07-18 18:02:00,94.9,77.0,29.96,NNW,347,1.0,-999.0,57,-99.99,,,0.00,98,weatherlink.com 1.10,2013-07-18 22:02:00,
2013-07-18 18:17:00,94.3,76.0,29.96,NNW,347,0.0,-999.0,56,-99.99,,,0.00,83,weatherlink.com 1.10,2013-07-18 22:17:00,
2013-07-18 18:32:00,93.5,79.0,29.95,NNW,347,0.0,-999.0,62,-99.99,,,0.00,65,weatherlink.com 1.10,2013-07-18 22:32:00,
2013-07-18 19:02:00,93.1,78.0,29.97,NNW,347,0.0,-999.0,62,-99.99,,,0.00,77,weatherlink.com 1.10,2013-07-18 23:02:00,
2013-07-18 19:17:00,92.9,77.0,29.97,NNW,347,0.0,-999.0,61,-99.99,,,0.00,95,weatherlink.com 1.10,2013-07-18 23:17:00,
2013-07-18 19:32:00,92.9,78.0,29.98,SSW,213,1.0,-999.0,63,-99.99,,,0.00,40,weatherlink.com 1.10,2013-07-18 23:32:00,
2013-07-18 19:47:00,92.2,79.0,29.98,SW,223,1.0,-999.0,65,-99.99,,,0.00,32,weatherlink.com 1.10,2013-07-18 23:47:00,
2013-07-18 20:02:00,90.7,78.0,29.98,West,278,1.0,-999.0,67,-99.99,,,0.00,12,weatherlink.com 1.10,2013-07-19 00:02:00,
2013-07-18 20:17:00,89.3,78.0,29.98,SW,236,0.0,-999.0,70,-99.99,,,0.00,0,weatherlink.com 1.10,2013-07-19 00:17:00,
2013-07-18 20:32:00,87.9,77.0,29.98,WSW,257,1.0,-999.0,71,-99.99,,,0.00,0,weatherlink.com 1.10,2013-07-19 00:32:00,
2013-07-18 20:47:00,86.7,77.0,29.99,SSW,198,1.0,-999.0,72,-99.99,,,0.00,0,weatherlink.com 1.10,2013-07-19 00:47:00,
2013-07-18 21:02:00,86.0,77.0,29.98,SSW,198,1.0,-999.0,74,-99.99,,,0.00,0,weatherlink.com 1.10,2013-07-19 01:02:00,
2013-07-18 21:17:00,85.3,77.0,29.99,SSW,198,1.0,-999.0,75,-99.99,,,0.00,0,weatherlink.com 1.10,2013-07-19 01:17:00,
2013-07-18 21:32:00,84.6,76.0,29.98,South,191,0.0,-999.0,76,-99.99,,,0.00,0,weatherlink.com 1.10,2013-07-19 01:32:00,
2013-07-18 21:47:00,83.9,76.0,29.98,South,191,0.0,-999.0,77,-99.99,,,0.00,0,weatherlink.com 1.10,2013-07-19 01:47:00,
2013-07-18 22:02:00,83.3,76.0,29.98,South,191,0.0,-999.0,78,-99.99,,,0.00,0,weatherlink.com 1.10,2013-07-19 02:02:00,
2013-07-18 22:17:00,82.9,76.0,29.98,South,191,0.0,-999.0,79,-99.99,,,0.00,0,weatherlink.com 1.10,2013-07-19 02:17:00,
2013-07-18 22:32:00,82.7,75.0,29.98,South,191,0.0,-999.0,78,-99.99,,,0.00,0,weatherlink.com 1.10,2013-07-19 02:32:00,
2013-07-18 22:47:00,82.8,75.0,29.98,South,191,0.0,-999.0,78,-99.99,,,0.00,0,weatherlink.com 1.10,2013-07-19 02:47:00,
2013-07-18 23:02:00,82.8,76.0,29.98,South,191,0.0,-999.0,79,-99.99,,,0.00,0,weatherlink.com 1.10,2013-07-19 03:02:00,
2013-07-18 23:17:00,82.7,76.0,29.98,SSW,192,1.0,-999.0,80,-99.99,,,0.00,0,weatherlink.com 1.10,2013-07-19 03:17:00,
2013-07-18 23:32:00,82.4,76.0,29.97,SSW,192,1.0,-999.0,81,-99.99,,,0.00,0,weatherlink.com 1.10,2013-07-19 03:32:00,
2013-07-18 23:47:00,82.0,76.0,29.97,SSW,192,0.0,-999.0,82,-99.99,,,0.00,0,weatherlink.com 1.10,2013-07-19 03:47:00,